Cheney Center, Colorado
Current Conditions -  °F | °C
As of 12:35 PM on Tuesday 21 Oct 2014 (Local Time) from K3K3 Reporting Station
Clear Clear  
Wind Chill: 79°   Ceiling: Unl
Heat Index: 79°   Visibility: 10mi
Dew Point: 50°   Wind: 18mph
Humidity: 36%   Direction: 200°SSW
Pressure: 30.02"   Gusts: 23mph
Location:  37.8253°N, 102.163°W
Report Text: K3K3 211835Z AUTO 20016G20KT 10SM CLR 26/10 A3002 RMK AO2
Loading
Personal Weather Stations






























Interactive Weather Map
Tropical Storm Tracking
New forecast layout! Learn more

10-Day Weather Forecast

Advertisements
Track Severe Weather on mobile